sensor_id;sensor_type;location;lat;lon;timestamp;pressure;altitude;pressure_sealevel;temperature;humidity
9855;BME280;4966;48.112;9.282;2023-05-12T00:02:20;94375.66;;;10.67;90.11
9855;BME280;4966;48.112;9.282;2023-05-12T00:04:45;94375.91;;;10.62;89.50
9855;BME280;4966;48.112;9.282;2023-05-12T00:07:10;94374.34;;;10.61;89.77
9855;BME280;4966;48.112;9.282;2023-05-12T00:09:36;94381.84;;;10.52;90.31
9855;BME280;4966;48.112;9.282;2023-05-12T00:12:01;94376.91;;;10.41;90.57
9855;BME280;4966;48.112;9.282;2023-05-12T00:14:27;94370.41;;;10.46;90.38
9855;BME280;4966;48.112;9.282;2023-05-12T00:16:53;94372.69;;;10.44;90.87
9855;BME280;4966;48.112;9.282;2023-05-12T00:19:18;94361.91;;;10.48;90.78
9855;BME280;4966;48.112;9.282;2023-05-12T00:21:44;94358.69;;;10.30;90.39
9855;BME280;4966;48.112;9.282;2023-05-12T00:24:10;94370.44;;;10.21;90.29
9855;BME280;4966;48.112;9.282;2023-05-12T00:26:35;94367.66;;;10.06;90.83
9855;BME280;4966;48.112;9.282;2023-05-12T00:29:00;94371.69;;;10.12;90.77
9855;BME280;4966;48.112;9.282;2023-05-12T00:31:26;94366.16;;;10.20;91.00
9855;BME280;4966;48.112;9.282;2023-05-12T00:33:51;94363.19;;;10.26;90.01
9855;BME280;4966;48.112;9.282;2023-05-12T00:36:16;94357.56;;;10.06;90.09
9855;BME280;4966;48.112;9.282;2023-05-12T00:38:42;94357.00;;;9.88;91.72
9855;BME280;4966;48.112;9.282;2023-05-12T00:41:07;94357.69;;;9.85;92.02
9855;BME280;4966;48.112;9.282;2023-05-12T00:43:32;94357.38;;;9.87;91.51
9855;BME280;4966;48.112;9.282;2023-05-12T00:45:59;94353.28;;;9.80;91.89
9855;BME280;4966;48.112;9.282;2023-05-12T00:48:25;94362.91;;;9.78;92.25
9855;BME280;4966;48.112;9.282;2023-05-12T00:50:51;94361.34;;;9.77;92.11
9855;BME280;4966;48.112;9.282;2023-05-12T00:53:16;94356.31;;;9.79;92.20
9855;BME280;4966;48.112;9.282;2023-05-12T00:55:42;94361.09;;;9.94;92.24
9855;BME280;4966;48.112;9.282;2023-05-12T00:58:08;94350.44;;;9.89;92.01
9855;BME280;4966;48.112;9.282;2023-05-12T01:00:33;94356.31;;;9.79;91.08
9855;BME280;4966;48.112;9.282;2023-05-12T01:02:59;94348.19;;;9.67;90.86
9855;BME280;4966;48.112;9.282;2023-05-12T01:05:44;94350.69;;;9.47;91.85
9855;BME280;4966;48.112;9.282;2023-05-12T01:08:12;94347.84;;;9.44;91.83
9855;BME280;4966;48.112;9.282;2023-05-12T01:10:42;94353.63;;;9.54;90.35
9855;BME280;4966;48.112;9.282;2023-05-12T01:13:08;94354.41;;;9.43;90.22
9855;BME280;4966;48.112;9.282;2023-05-12T01:15:33;94344.44;;;9.34;90.46
9855;BME280;4966;48.112;9.282;2023-05-12T01:18:00;94350.44;;;9.28;90.41
9855;BME280;4966;48.112;9.282;2023-05-12T01:20:27;94343.22;;;9.32;90.02
9855;BME280;4966;48.112;9.282;2023-05-12T01:22:54;94352.69;;;9.13;90.07
9855;BME280;4966;48.112;9.282;2023-05-12T01:25:22;94356.31;;;9.18;90.08
9855;BME280;4966;48.112;9.282;2023-05-12T01:27:48;94352.00;;;9.29;90.23
9855;BME280;4966;48.112;9.282;2023-05-12T01:30:18;94353.84;;;9.37;89.74
9855;BME280;4966;48.112;9.282;2023-05-12T01:32:44;94349.44;;;9.32;90.87
9855;BME280;4966;48.112;9.282;2023-05-12T01:35:09;94347.25;;;9.26;92.03
9855;BME280;4966;48.112;9.282;2023-05-12T01:37:35;94350.44;;;9.28;91.99
9855;BME280;4966;48.112;9.282;2023-05-12T01:40:01;94352.28;;;9.48;91.20
9855;BME280;4966;48.112;9.282;2023-05-12T01:42:26;94344.56;;;9.38;91.66
9855;BME280;4966;48.112;9.282;2023-05-12T01:44:52;94343.66;;;9.46;91.05
9855;BME280;4966;48.112;9.282;2023-05-12T01:47:17;94349.56;;;9.48;90.78
9855;BME280;4966;48.112;9.282;2023-05-12T01:49:43;94343.91;;;9.41;90.58
9855;BME280;4966;48.112;9.282;2023-05-12T01:52:08;94345.25;;;9.35;90.66
9855;BME280;4966;48.112;9.282;2023-05-12T01:54:33;94346.63;;;9.41;90.50
9855;BME280;4966;48.112;9.282;2023-05-12T01:56:59;94351.22;;;9.41;89.26
9855;BME280;4966;48.112;9.282;2023-05-12T01:59:24;94348.50;;;9.28;89.30
9855;BME280;4966;48.112;9.282;2023-05-12T02:01:50;94348.63;;;9.32;88.48
9855;BME280;4966;48.112;9.282;2023-05-12T02:04:15;94350.22;;;9.33;88.70
9855;BME280;4966;48.112;9.282;2023-05-12T02:06:40;94353.69;;;9.21;88.79
9855;BME280;4966;48.112;9.282;2023-05-12T02:09:06;94354.72;;;9.16;89.39
9855;BME280;4966;48.112;9.282;2023-05-12T02:11:31;94361.19;;;9.24;88.37
9855;BME280;4966;48.112;9.282;2023-05-12T02:13:56;94365.22;;;9.18;88.05
9855;BME280;4966;48.112;9.282;2023-05-12T02:16:22;94357.19;;;9.09;88.32
9855;BME280;4966;48.112;9.282;2023-05-12T02:18:48;94362.97;;;8.75;88.99
9855;BME280;4966;48.112;9.282;2023-05-12T02:21:13;94360.06;;;8.80;88.91
9855;BME280;4966;48.112;9.282;2023-05-12T02:23:38;94374.97;;;8.52;88.61
9855;BME280;4966;48.112;9.282;2023-05-12T02:26:03;94366.16;;;8.35;88.59
9855;BME280;4966;48.112;9.282;2023-05-12T02:28:29;94371.91;;;8.12;89.46
9855;BME280;4966;48.112;9.282;2023-05-12T02:30:54;94366.63;;;8.16;89.51
9855;BME280;4966;48.112;9.282;2023-05-12T02:33:20;94370.31;;;8.11;88.86
9855;BME280;4966;48.112;9.282;2023-05-12T02:35:47;94368.53;;;8.15;89.33
9855;BME280;4966;48.112;9.282;2023-05-12T02:38:12;94377.59;;;8.19;89.72
9855;BME280;4966;48.112;9.282;2023-05-12T02:40:38;94379.22;;;7.91;90.65
9855;BME280;4966;48.112;9.282;2023-05-12T02:43:03;94376.44;;;7.99;89.99
9855;BME280;4966;48.112;9.282;2023-05-12T02:45:29;94368.22;;;7.87;91.41
9855;BME280;4966;48.112;9.282;2023-05-12T02:47:54;94378.25;;;8.16;90.53
9855;BME280;4966;48.112;9.282;2023-05-12T02:50:19;94373.50;;;8.34;89.46
9855;BME280;4966;48.112;9.282;2023-05-12T02:52:48;94375.41;;;8.34;90.01
9855;BME280;4966;48.112;9.282;2023-05-12T02:55:14;94373.94;;;8.15;90.50
9855;BME280;4966;48.112;9.282;2023-05-12T02:57:39;94365.34;;;8.13;91.68
9855;BME280;4966;48.112;9.282;2023-05-12T03:00:05;94365.63;;;8.20;92.00
9855;BME280;4966;48.112;9.282;2023-05-12T03:02:32;94370.19;;;8.28;92.05
9855;BME280;4966;48.112;9.282;2023-05-12T03:04:57;94361.28;;;8.49;92.07
9855;BME280;4966;48.112;9.282;2023-05-12T03:07:22;94361.00;;;8.63;89.66
9855;BME280;4966;48.112;9.282;2023-05-12T03:09:48;94360.00;;;8.67;88.19
9855;BME280;4966;48.112;9.282;2023-05-12T03:12:13;94375.50;;;8.46;89.75
9855;BME280;4966;48.112;9.282;2023-05-12T03:14:38;94364.13;;;8.52;89.08
9855;BME280;4966;48.112;9.282;2023-05-12T03:17:03;94360.34;;;8.45;89.70
9855;BME280;4966;48.112;9.282;2023-05-12T03:19:29;94367.09;;;8.60;89.14
9855;BME280;4966;48.112;9.282;2023-05-12T03:21:54;94360.44;;;8.57;89.51
9855;BME280;4966;48.112;9.282;2023-05-12T03:24:20;94354.59;;;8.46;89.29
9855;BME280;4966;48.112;9.282;2023-05-12T03:26:45;94355.41;;;8.47;89.35
9855;BME280;4966;48.112;9.282;2023-05-12T03:29:10;94351.31;;;8.41;89.90
9855;BME280;4966;48.112;9.282;2023-05-12T03:31:36;94359.75;;;8.39;89.44
9855;BME280;4966;48.112;9.282;2023-05-12T03:34:01;94346.47;;;8.46;88.74
9855;BME280;4966;48.112;9.282;2023-05-12T03:36:27;94349.09;;;8.34;88.75
9855;BME280;4966;48.112;9.282;2023-05-12T03:38:52;94343.00;;;8.37;88.60
9855;BME280;4966;48.112;9.282;2023-05-12T03:41:17;94354.50;;;8.43;88.77
9855;BME280;4966;48.112;9.282;2023-05-12T03:43:43;94349.66;;;8.48;88.13
9855;BME280;4966;48.112;9.282;2023-05-12T03:46:08;94348.50;;;8.49;87.65
9855;BME280;4966;48.112;9.282;2023-05-12T03:48:34;94356.59;;;8.58;87.30
9855;BME280;4966;48.112;9.282;2023-05-12T03:50:59;94350.38;;;8.58;88.10
9855;BME280;4966;48.112;9.282;2023-05-12T03:53:24;94354.94;;;8.45;88.84
9855;BME280;4966;48.112;9.282;2023-05-12T03:55:49;94355.59;;;8.42;89.47
9855;BME280;4966;48.112;9.282;2023-05-12T03:58:15;94355.19;;;8.52;90.12
9855;BME280;4966;48.112;9.282;2023-05-12T04:00:40;94355.59;;;8.63;90.56
9855;BME280;4966;48.112;9.282;2023-05-12T04:03:06;94346.50;;;8.80;88.44
9855;BME280;4966;48.112;9.282;2023-05-12T04:05:31;94358.69;;;8.86;88.62
9855;BME280;4966;48.112;9.282;2023-05-12T04:07:56;94347.75;;;8.82;87.58
9855;BME280;4966;48.112;9.282;2023-05-12T04:10:22;94354.72;;;8.83;87.23
9855;BME280;4966;48.112;9.282;2023-05-12T04:12:47;94353.41;;;8.56;88.16
9855;BME280;4966;48.112;9.282;2023-05-12T04:15:12;94352.00;;;8.71;88.79
9855;BME280;4966;48.112;9.282;2023-05-12T04:17:39;94358.44;;;8.79;87.28
9855;BME280;4966;48.112;9.282;2023-05-12T04:20:05;94346.88;;;8.57;87.44
9855;BME280;4966;48.112;9.282;2023-05-12T04:22:31;94345.47;;;8.51;88.01
9855;BME280;4966;48.112;9.282;2023-05-12T04:24:56;94349.38;;;8.62;88.32
9855;BME280;4966;48.112;9.282;2023-05-12T04:27:22;94356.56;;;8.79;88.24
9855;BME280;4966;48.112;9.282;2023-05-12T04:29:47;94349.50;;;8.66;87.66
9855;BME280;4966;48.112;9.282;2023-05-12T04:32:12;94360.00;;;8.67;87.89
9855;BME280;4966;48.112;9.282;2023-05-12T04:34:37;94360.00;;;8.67;88.09
9855;BME280;4966;48.112;9.282;2023-05-12T04:37:03;94358.22;;;8.71;88.52
9855;BME280;4966;48.112;9.282;2023-05-12T04:39:28;94365.00;;;8.78;89.63
9855;BME280;4966;48.112;9.282;2023-05-12T04:41:54;94366.28;;;8.92;90.21
9855;BME280;4966;48.112;9.282;2023-05-12T04:44:19;94363.41;;;9.10;90.13
9855;BME280;4966;48.112;9.282;2023-05-12T04:46:46;94355.31;;;9.22;89.76
9855;BME280;4966;48.112;9.282;2023-05-12T04:49:11;94361.84;;;9.21;90.13
9855;BME280;4966;48.112;9.282;2023-05-12T04:51:36;94362.63;;;9.22;89.79
9855;BME280;4966;48.112;9.282;2023-05-12T04:54:10;94362.06;;;9.28;90.30
9855;BME280;4966;48.112;9.282;2023-05-12T04:56:35;94367.41;;;9.49;89.77
9855;BME280;4966;48.112;9.282;2023-05-12T04:59:01;94373.63;;;9.50;88.22
9855;BME280;4966;48.112;9.282;2023-05-12T05:01:26;94374.31;;;9.59;88.77
9855;BME280;4966;48.112;9.282;2023-05-12T05:03:52;94380.34;;;9.77;88.96
9855;BME280;4966;48.112;9.282;2023-05-12T05:06:17;94367.22;;;9.91;88.09
9855;BME280;4966;48.112;9.282;2023-05-12T05:08:42;94369.47;;;10.01;86.05
9855;BME280;4966;48.112;9.282;2023-05-12T05:11:08;94382.16;;;9.85;86.66
9855;BME280;4966;48.112;9.282;2023-05-12T05:13:33;94382.25;;;10.13;84.85
9855;BME280;4966;48.112;9.282;2023-05-12T05:15:59;94374.53;;;10.15;83.57
9855;BME280;4966;48.112;9.282;2023-05-12T05:18:24;94376.59;;;9.94;86.05
9855;BME280;4966;48.112;9.282;2023-05-12T05:20:50;94384.06;;;9.85;86.67
9855;BME280;4966;48.112;9.282;2023-05-12T05:23:15;94391.06;;;10.22;85.21
9855;BME280;4966;48.112;9.282;2023-05-12T05:25:40;94377.22;;;10.40;84.70
9855;BME280;4966;48.112;9.282;2023-05-12T05:28:06;94376.91;;;10.41;83.92
9855;BME280;4966;48.112;9.282;2023-05-12T05:30:32;94371.25;;;10.34;85.54
9855;BME280;4966;48.112;9.282;2023-05-12T05:32:57;94376.38;;;10.64;84.02
9855;BME280;4966;48.112;9.282;2023-05-12T05:35:22;94382.88;;;10.47;83.63
9855;BME280;4966;48.112;9.282;2023-05-12T05:37:48;94386.28;;;10.72;84.15
9855;BME280;4966;48.112;9.282;2023-05-12T05:40:14;94373.72;;;10.96;83.01
9855;BME280;4966;48.112;9.282;2023-05-12T05:42:40;94385.00;;;11.10;82.66
9855;BME280;4966;48.112;9.282;2023-05-12T05:45:06;94387.84;;;11.29;81.17
9855;BME280;4966;48.112;9.282;2023-05-12T05:47:31;94377.50;;;10.91;83.04
9855;BME280;4966;48.112;9.282;2023-05-12T05:49:58;94386.41;;;11.04;83.89
9855;BME280;4966;48.112;9.282;2023-05-12T05:52:23;94384.19;;;11.38;81.93
9855;BME280;4966;48.112;9.282;2023-05-12T05:54:49;94384.47;;;11.04;83.69
9855;BME280;4966;48.112;9.282;2023-05-12T05:57:14;94382.94;;;11.51;81.70
9855;BME280;4966;48.112;9.282;2023-05-12T05:59:40;94379.44;;;11.50;83.81
9855;BME280;4966;48.112;9.282;2023-05-12T06:02:05;94387.34;;;11.87;81.28
9855;BME280;4966;48.112;9.282;2023-05-12T06:04:31;94387.97;;;11.97;81.13
9855;BME280;4966;48.112;9.282;2023-05-12T06:06:56;94392.78;;;12.19;79.51
9855;BME280;4966;48.112;9.282;2023-05-12T06:09:21;94384.84;;;12.30;79.04
9855;BME280;4966;48.112;9.282;2023-05-12T06:11:47;94386.13;;;12.01;79.60
9855;BME280;4966;48.112;9.282;2023-05-12T06:14:12;94387.44;;;12.07;81.27
9855;BME280;4966;48.112;9.282;2023-05-12T06:16:37;94389.84;;;12.28;81.76
9855;BME280;4966;48.112;9.282;2023-05-12T06:19:03;94388.25;;;11.76;82.86
9855;BME280;4966;48.112;9.282;2023-05-12T06:21:28;94397.53;;;12.22;80.73
9855;BME280;4966;48.112;9.282;2023-05-12T06:23:54;94400.84;;;12.67;79.75
9855;BME280;4966;48.112;9.282;2023-05-12T06:26:20;94395.84;;;12.18;81.00
9855;BME280;4966;48.112;9.282;2023-05-12T06:28:46;94397.53;;;12.77;79.47
9855;BME280;4966;48.112;9.282;2023-05-12T06:31:11;94396.66;;;13.12;78.58
9855;BME280;4966;48.112;9.282;2023-05-12T06:33:37;94401.13;;;13.01;78.19
9855;BME280;4966;48.112;9.282;2023-05-12T06:36:02;94398.81;;;13.22;77.88
9855;BME280;4966;48.112;9.282;2023-05-12T06:38:28;94404.09;;;13.54;77.40
9855;BME280;4966;48.112;9.282;2023-05-12T06:40:53;94399.63;;;12.84;78.79
9855;BME280;4966;48.112;9.282;2023-05-12T06:43:18;94399.81;;;13.53;77.67
9855;BME280;4966;48.112;9.282;2023-05-12T06:45:44;94396.50;;;13.67;76.35
9855;BME280;4966;48.112;9.282;2023-05-12T06:48:09;94392.03;;;13.78;77.54
9855;BME280;4966;48.112;9.282;2023-05-12T06:50:34;94396.44;;;13.86;76.04
9855;BME280;4966;48.112;9.282;2023-05-12T06:53:00;94387.97;;;13.91;74.91
9855;BME280;4966;48.112;9.282;2023-05-12T06:55:25;94391.25;;;13.77;77.24
9855;BME280;4966;48.112;9.282;2023-05-12T06:57:51;94384.28;;;14.07;75.05
9855;BME280;4966;48.112;9.282;2023-05-12T07:00:23;94394.75;;;13.78;76.34
9855;BME280;4966;48.112;9.282;2023-05-12T07:02:49;94389.19;;;14.20;74.32
9855;BME280;4966;48.112;9.282;2023-05-12T07:05:14;94393.47;;;13.95;74.11
9855;BME280;4966;48.112;9.282;2023-05-12T07:07:40;94390.50;;;14.30;72.96
9855;BME280;4966;48.112;9.282;2023-05-12T07:10:06;94382.19;;;14.53;72.72
9855;BME280;4966;48.112;9.282;2023-05-12T07:12:32;94389.22;;;14.77;70.70
9855;BME280;4966;48.112;9.282;2023-05-12T07:14:58;94391.34;;;14.61;70.64
9855;BME280;4966;48.112;9.282;2023-05-12T07:17:23;94388.22;;;14.93;69.06
9855;BME280;4966;48.112;9.282;2023-05-12T07:19:48;94387.81;;;14.60;71.48
9855;BME280;4966;48.112;9.282;2023-05-12T07:22:14;94384.78;;;14.65;71.24
9855;BME280;4966;48.112;9.282;2023-05-12T07:24:39;94387.66;;;15.10;70.54
9855;BME280;4966;48.112;9.282;2023-05-12T07:27:05;94384.59;;;15.56;69.13
9855;BME280;4966;48.112;9.282;2023-05-12T07:29:32;94388.75;;;15.73;68.98
9855;BME280;4966;48.112;9.282;2023-05-12T07:31:57;94382.47;;;15.35;69.38
9855;BME280;4966;48.112;9.282;2023-05-12T07:34:23;94390.38;;;15.06;71.14
9855;BME280;4966;48.112;9.282;2023-05-12T07:36:48;94383.97;;;14.38;69.20
9855;BME280;4966;48.112;9.282;2023-05-12T07:39:13;94389.53;;;15.77;65.94
9855;BME280;4966;48.112;9.282;2023-05-12T07:41:43;94386.13;;;15.50;69.34
9855;BME280;4966;48.112;9.282;2023-05-12T07:44:08;94384.84;;;15.40;69.75
9855;BME280;4966;48.112;9.282;2023-05-12T07:46:35;94383.19;;;15.69;67.11
9855;BME280;4966;48.112;9.282;2023-05-12T07:49:01;94373.53;;;16.31;63.90
9855;BME280;4966;48.112;9.282;2023-05-12T07:51:26;94380.38;;;16.62;63.29
9855;BME280;4966;48.112;9.282;2023-05-12T07:53:51;94383.81;;;17.21;60.57
9855;BME280;4966;48.112;9.282;2023-05-12T07:56:19;94387.69;;;17.06;61.56
9855;BME280;4966;48.112;9.282;2023-05-12T07:58:46;94392.03;;;17.14;60.39
9855;BME280;4966;48.112;9.282;2023-05-12T08:01:11;94385.34;;;17.15;57.62
9855;BME280;4966;48.112;9.282;2023-05-12T08:03:37;94394.84;;;17.32;57.60
9855;BME280;4966;48.112;9.282;2023-05-12T08:06:02;94385.84;;;17.50;57.88
9855;BME280;4966;48.112;9.282;2023-05-12T08:08:30;94389.94;;;16.90;59.53
9855;BME280;4966;48.112;9.282;2023-05-12T08:10:55;94383.78;;;17.18;58.56
9855;BME280;4966;48.112;9.282;2023-05-12T08:13:21;94388.53;;;17.28;60.08
9855;BME280;4966;48.112;9.282;2023-05-12T08:15:48;94388.94;;;17.30;58.79
9855;BME280;4966;48.112;9.282;2023-05-12T08:18:13;94382.72;;;17.55;57.75
9855;BME280;4966;48.112;9.282;2023-05-12T08:20:38;94385.94;;;17.82;58.72
9855;BME280;4966;48.112;9.282;2023-05-12T08:23:03;94381.22;;;18.00;59.59
9855;BME280;4966;48.112;9.282;2023-05-12T08:25:29;94381.97;;;18.62;53.65
9855;BME280;4966;48.112;9.282;2023-05-12T08:27:55;94383.19;;;18.43;52.91
9855;BME280;4966;48.112;9.282;2023-05-12T08:30:21;94382.75;;;18.80;51.05
9855;BME280;4966;48.112;9.282;2023-05-12T08:32:46;94376.84;;;17.60;58.88
9855;BME280;4966;48.112;9.282;2023-05-12T08:35:12;94385.97;;;18.03;55.95
9855;BME280;4966;48.112;9.282;2023-05-12T08:37:37;94382.34;;;18.67;54.59
9855;BME280;4966;48.112;9.282;2023-05-12T08:40:09;94379.59;;;18.78;52.31
9855;BME280;4966;48.112;9.282;2023-05-12T08:42:42;94378.81;;;18.67;53.05
9855;BME280;4966;48.112;9.282;2023-05-12T08:45:09;94379.25;;;18.51;53.56
9855;BME280;4966;48.112;9.282;2023-05-12T08:47:36;94386.97;;;16.54;60.93
9855;BME280;4966;48.112;9.282;2023-05-12T08:50:03;94390.22;;;17.76;60.37
9855;BME280;4966;48.112;9.282;2023-05-12T08:52:33;94386.72;;;17.86;60.05
9855;BME280;4966;48.112;9.282;2023-05-12T08:54:59;94386.34;;;17.95;57.31
9855;BME280;4966;48.112;9.282;2023-05-12T08:57:25;94389.53;;;16.88;61.78
9855;BME280;4966;48.112;9.282;2023-05-12T08:59:55;94389.44;;;17.68;60.08
9855;BME280;4966;48.112;9.282;2023-05-12T09:02:22;94389.78;;;17.52;57.96
9855;BME280;4966;48.112;9.282;2023-05-12T09:04:49;94390.28;;;17.94;56.20
9855;BME280;4966;48.112;9.282;2023-05-12T09:07:15;94397.34;;;17.88;57.54
9855;BME280;4966;48.112;9.282;2023-05-12T09:09:43;94392.13;;;17.43;55.86
9855;BME280;4966;48.112;9.282;2023-05-12T09:12:12;94385.94;;;17.85;55.15
9855;BME280;4966;48.112;9.282;2023-05-12T09:14:39;94391.00;;;17.69;55.48
9855;BME280;4966;48.112;9.282;2023-05-12T09:17:05;94387.50;;;18.55;55.02
9855;BME280;4966;48.112;9.282;2023-05-12T09:19:30;94389.88;;;18.27;54.62
9855;BME280;4966;48.112;9.282;2023-05-12T09:21:57;94385.84;;;19.04;52.62
9855;BME280;4966;48.112;9.282;2023-05-12T09:24:35;94388.63;;;18.86;52.42
9855;BME280;4966;48.112;9.282;2023-05-12T09:27:01;94388.16;;;19.05;52.92
9855;BME280;4966;48.112;9.282;2023-05-12T09:29:26;94390.03;;;19.33;52.14
9855;BME280;4966;48.112;9.282;2023-05-12T09:31:53;94392.28;;;19.57;51.82
9855;BME280;4966;48.112;9.282;2023-05-12T09:34:26;94391.72;;;19.13;52.04
9855;BME280;4966;48.112;9.282;2023-05-12T09:36:56;94392.84;;;19.19;53.32
9855;BME280;4966;48.112;9.282;2023-05-12T09:39:22;94395.91;;;19.43;50.62
9855;BME280;4966;48.112;9.282;2023-05-12T09:41:47;94390.47;;;19.18;50.02
9855;BME280;4966;48.112;9.282;2023-05-12T09:44:14;94393.59;;;19.30;52.04
9855;BME280;4966;48.112;9.282;2023-05-12T09:46:42;94388.75;;;19.52;51.51
9855;BME280;4966;48.112;9.282;2023-05-12T09:49:08;94386.03;;;20.12;50.32
9855;BME280;4966;48.112;9.282;2023-05-12T09:51:33;94388.28;;;19.65;48.77
9855;BME280;4966;48.112;9.282;2023-05-12T09:53:59;94387.97;;;20.15;50.45
9855;BME280;4966;48.112;9.282;2023-05-12T09:56:28;94391.63;;;20.05;50.12
9855;BME280;4966;48.112;9.282;2023-05-12T09:58:56;94394.28;;;19.49;49.11
9855;BME280;4966;48.112;9.282;2023-05-12T10:01:22;94379.94;;;19.83;52.05
9855;BME280;4966;48.112;9.282;2023-05-12T10:03:52;94382.66;;;20.38;46.63
9855;BME280;4966;48.112;9.282;2023-05-12T10:06:30;94380.78;;;19.65;49.78
9855;BME280;4966;48.112;9.282;2023-05-12T10:09:20;94383.53;;;20.28;48.45
9855;BME280;4966;48.112;9.282;2023-05-12T10:11:49;94384.28;;;19.80;45.16
9855;BME280;4966;48.112;9.282;2023-05-12T10:14:15;94376.75;;;20.36;46.80
9855;BME280;4966;48.112;9.282;2023-05-12T10:16:44;94377.88;;;19.97;47.58
9855;BME280;4966;48.112;9.282;2023-05-12T10:19:09;94377.38;;;20.10;46.46
9855;BME280;4966;48.112;9.282;2023-05-12T10:21:36;94373.00;;;20.99;46.35
9855;BME280;4966;48.112;9.282;2023-05-12T10:24:02;94371.56;;;21.21;46.41
9855;BME280;4966;48.112;9.282;2023-05-12T10:26:28;94374.53;;;20.66;44.71
9855;BME280;4966;48.112;9.282;2023-05-12T10:28:55;94373.22;;;20.36;44.16
9855;BME280;4966;48.112;9.282;2023-05-12T10:31:21;94361.66;;;20.48;45.14
9855;BME280;4966;48.112;9.282;2023-05-12T10:34:00;94371.75;;;21.03;46.25
9855;BME280;4966;48.112;9.282;2023-05-12T10:36:26;94367.91;;;20.59;46.69
9855;BME280;4966;48.112;9.282;2023-05-12T10:38:52;94369.69;;;21.45;43.59
9855;BME280;4966;48.112;9.282;2023-05-12T10:41:29;94372.84;;;21.75;46.17
9855;BME280;4966;48.112;9.282;2023-05-12T10:43:55;94367.44;;;21.33;45.53
9855;BME280;4966;48.112;9.282;2023-05-12T10:46:21;94372.25;;;22.14;41.33
9855;BME280;4966;48.112;9.282;2023-05-12T10:49:01;94373.75;;;22.46;40.65
9855;BME280;4966;48.112;9.282;2023-05-12T10:51:45;94366.75;;;21.25;43.10
9855;BME280;4966;48.112;9.282;2023-05-12T10:54:18;94368.88;;;22.03;41.69
9855;BME280;4966;48.112;9.282;2023-05-12T10:56:44;94365.91;;;22.64;39.18
9855;BME280;4966;48.112;9.282;2023-05-12T10:59:20;94360.69;;;22.90;39.64
9855;BME280;4966;48.112;9.282;2023-05-12T11:02:12;94369.03;;;22.66;39.27
9855;BME280;4966;48.112;9.282;2023-05-12T11:04:50;94371.69;;;22.93;38.09
9855;BME280;4966;48.112;9.282;2023-05-12T11:07:25;94374.41;;;22.54;40.09
9855;BME280;4966;48.112;9.282;2023-05-12T11:09:52;94375.03;;;22.41;38.59
9855;BME280;4966;48.112;9.282;2023-05-12T11:12:18;94360.59;;;22.73;37.22
9855;BME280;4966;48.112;9.282;2023-05-12T11:14:44;94373.88;;;22.39;37.26
9855;BME280;4966;48.112;9.282;2023-05-12T11:17:11;94370.03;;;21.78;40.25
9855;BME280;4966;48.112;9.282;2023-05-12T11:19:37;94376.66;;;21.57;37.51
9855;BME280;4966;48.112;9.282;2023-05-12T11:22:08;94376.22;;;21.86;38.05
9855;BME280;4966;48.112;9.282;2023-05-12T11:24:35;94369.59;;;20.84;40.32
9855;BME280;4966;48.112;9.282;2023-05-12T11:27:02;94375.97;;;20.81;39.81
9855;BME280;4966;48.112;9.282;2023-05-12T11:29:28;94375.03;;;20.05;40.61
9855;BME280;4966;48.112;9.282;2023-05-12T11:31:54;94376.84;;;19.73;41.31
9855;BME280;4966;48.112;9.282;2023-05-12T11:34:23;94381.34;;;20.57;41.34
9855;BME280;4966;48.112;9.282;2023-05-12T11:36:52;94379.97;;;20.73;42.76
9855;BME280;4966;48.112;9.282;2023-05-12T11:39:19;94379.47;;;20.85;41.10
9855;BME280;4966;48.112;9.282;2023-05-12T11:41:48;94376.06;;;20.25;43.46
9855;BME280;4966;48.112;9.282;2023-05-12T11:44:18;94374.97;;;20.60;45.31
9855;BME280;4966;48.112;9.282;2023-05-12T11:49:26;94375.75;;;20.61;45.10
9855;BME280;4966;48.112;9.282;2023-05-12T11:51:54;94380.34;;;20.78;44.51
9855;BME280;4966;48.112;9.282;2023-05-12T11:54:20;94373.78;;;20.99;42.90
9855;BME280;4966;48.112;9.282;2023-05-12T11:56:56;94372.28;;;20.91;42.12
9855;BME280;4966;48.112;9.282;2023-05-12T11:59:30;94378.28;;;21.20;42.51
9855;BME280;4966;48.112;9.282;2023-05-12T12:01:57;94383.06;;;20.37;41.84
9855;BME280;4966;48.112;9.282;2023-05-12T12:04:38;94373.84;;;20.92;44.84
9855;BME280;4966;48.112;9.282;2023-05-12T12:07:07;94385.81;;;20.40;45.21
9855;BME280;4966;48.112;9.282;2023-05-12T12:09:38;94385.06;;;20.78;45.36
9855;BME280;4966;48.112;9.282;2023-05-12T12:12:08;94382.13;;;20.96;43.18
9855;BME280;4966;48.112;9.282;2023-05-12T12:14:35;94384.44;;;20.63;41.92
9855;BME280;4966;48.112;9.282;2023-05-12T12:17:02;94384.28;;;20.32;43.60
9855;BME280;4966;48.112;9.282;2023-05-12T12:19:27;94387.50;;;19.68;43.73
9855;BME280;4966;48.112;9.282;2023-05-12T12:21:54;94383.97;;;19.71;42.88
9855;BME280;4966;48.112;9.282;2023-05-12T12:24:19;94381.25;;;19.53;45.15
9855;BME280;4966;48.112;9.282;2023-05-12T12:26:44;94389.56;;;20.12;45.05
9855;BME280;4966;48.112;9.282;2023-05-12T12:29:10;94391.63;;;20.05;44.92
9855;BME280;4966;48.112;9.282;2023-05-12T12:31:35;94394.34;;;20.08;43.53
9855;BME280;4966;48.112;9.282;2023-05-12T12:34:02;94398.00;;;19.10;45.16
9855;BME280;4966;48.112;9.282;2023-05-12T12:36:27;94386.59;;;19.01;46.72
9855;BME280;4966;48.112;9.282;2023-05-12T12:38:53;94392.53;;;18.99;46.47
9855;BME280;4966;48.112;9.282;2023-05-12T12:41:18;94397.66;;;18.94;48.84
9855;BME280;4966;48.112;9.282;2023-05-12T12:43:44;94391.38;;;18.93;48.27
9855;BME280;4966;48.112;9.282;2023-05-12T12:46:09;94395.78;;;19.71;48.88
9855;BME280;4966;48.112;9.282;2023-05-12T12:48:35;94392.56;;;19.80;45.79
9855;BME280;4966;48.112;9.282;2023-05-12T12:51:00;94392.81;;;20.00;44.72
9855;BME280;4966;48.112;9.282;2023-05-12T12:53:26;94390.56;;;20.36;46.02
9855;BME280;4966;48.112;9.282;2023-05-12T12:55:52;94399.03;;;20.15;47.09
9855;BME280;4966;48.112;9.282;2023-05-12T12:58:17;94390.41;;;20.54;46.59
9855;BME280;4966;48.112;9.282;2023-05-12T13:00:43;94392.25;;;21.06;44.76
9855;BME280;4966;48.112;9.282;2023-05-12T13:03:09;94385.56;;;20.21;44.58
9855;BME280;4966;48.112;9.282;2023-05-12T13:05:34;94388.25;;;20.31;44.68
9855;BME280;4966;48.112;9.282;2023-05-12T13:07:59;94392.44;;;20.02;45.37
9855;BME280;4966;48.112;9.282;2023-05-12T13:10:25;94391.13;;;20.13;45.38
9855;BME280;4966;48.112;9.282;2023-05-12T13:12:51;94395.00;;;19.64;47.19
9855;BME280;4966;48.112;9.282;2023-05-12T13:15:16;94393.78;;;20.28;46.73
9855;BME280;4966;48.112;9.282;2023-05-12T13:17:43;94387.69;;;20.92;45.40
9855;BME280;4966;48.112;9.282;2023-05-12T13:20:10;94395.44;;;21.39;43.57
9855;BME280;4966;48.112;9.282;2023-05-12T13:22:36;94381.13;;;21.13;43.34
9855;BME280;4966;48.112;9.282;2023-05-12T13:25:01;94383.53;;;20.28;43.37